Time;durP1;ratioP1;P1;durP2;ratioP2;P2;SDS_P1;SDS_P2;PMS_P1;PMS_P2;Temp;Humidity;BMP_temperature;BMP_pressure;BME280_temperature;BME280_humidity;BME280_pressure;Samples;Min_cycle;Max_cycle;Signal;HPM_P1;HPM_P2
2024/01/09 00:00:30;;;;;;;14.20;7.50;;;;;;;-9.00;100.00;102141.27;109295;1243;58040;-73
2024/01/09 00:03:19;;;;;;;13.10;6.50;;;;;;;-9.18;100.00;102149.99;109400;1244;74383;-74
2024/01/09 00:05:48;;;;;;;14.10;6.80;;;;;;;-9.24;100.00;102157.40;109356;1244;71972;-74
2024/01/09 00:08:18;;;;;;;16.80;7.90;;;;;;;-9.12;100.00;102167.56;109178;1248;67398;-73
2024/01/09 00:10:47;;;;;;;12.80;7.20;;;;;;;-9.05;100.00;102168.12;109216;1244;73017;-76
2024/01/09 00:13:15;;;;;;;12.20;6.20;;;;;;;-9.10;100.00;102177.08;109235;1246;63010;-75
2024/01/09 00:15:44;;;;;;;15.90;6.70;;;;;;;-9.17;100.00;102180.91;109207;1246;59889;-75
2024/01/09 00:18:13;;;;;;;18.00;7.60;;;;;;;-9.15;100.00;102190.25;109371;1243;71960;-75
2024/01/09 00:20:47;;;;;;;16.80;8.30;;;;;;;-9.24;100.00;102192.84;109347;1244;71616;-77
2024/01/09 00:23:17;;;;;;;15.00;8.80;;;;;;;-9.50;100.00;102197.86;109384;1244;70802;-74
2024/01/09 00:25:46;;;;;;;16.60;8.30;;;;;;;-9.46;100.00;102199.38;109325;1243;74173;-76
2024/01/09 00:28:15;;;;;;;15.30;7.80;;;;;;;-9.45;100.00;102208.02;109322;1245;60956;-74
2024/01/09 00:30:44;;;;;;;16.20;7.50;;;;;;;-9.36;100.00;102206.77;109343;1244;59588;-75
2024/01/09 00:33:13;;;;;;;14.90;7.40;;;;;;;-9.41;100.00;102215.20;109394;1243;73394;-75
2024/01/09 00:35:42;;;;;;;11.20;5.40;;;;;;;-9.38;100.00;102217.70;109376;1244;73861;-75
2024/01/09 00:38:10;;;;;;;10.90;6.00;;;;;;;-9.33;100.00;102220.38;109447;1243;70048;-74
2024/01/09 00:40:42;;;;;;;14.20;7.20;;;;;;;-9.43;100.00;102232.86;109262;1243;74437;-75
2024/01/09 00:43:12;;;;;;;13.80;7.20;;;;;;;-9.39;100.00;102236.20;109308;1246;63141;-78
2024/01/09 00:45:41;;;;;;;12.40;7.30;;;;;;;-9.45;100.00;102239.38;109311;1243;60814;-77
2024/01/09 00:48:09;;;;;;;14.50;7.20;;;;;;;-9.60;100.00;102246.63;109406;1243;72992;-77
2024/01/09 00:50:38;;;;;;;11.50;6.10;;;;;;;-9.64;100.00;102246.16;109329;1244;72116;-76
2024/01/09 00:53:07;;;;;;;12.40;6.70;;;;;;;-9.65;100.00;102250.68;109297;1243;70656;-77
2024/01/09 00:55:36;;;;;;;11.80;6.30;;;;;;;-9.62;100.00;102256.02;109386;1244;72453;-76
2024/01/09 00:58:05;;;;;;;13.40;7.80;;;;;;;-9.65;100.00;102259.61;109493;1245;60322;-75
2024/01/09 01:00:34;;;;;;;11.50;5.80;;;;;;;-9.63;100.00;102262.20;109535;1245;58610;-74
2024/01/09 01:03:03;;;;;;;11.40;5.50;;;;;;;-9.71;100.00;102267.64;109424;1244;73036;-75
2024/01/09 01:05:33;;;;;;;13.30;6.70;;;;;;;-9.77;100.00;102275.02;109549;1244;71891;-78
2024/01/09 01:08:02;;;;;;;7.50;4.90;;;;;;;-9.79;100.00;102282.23;109582;1245;68311;-78
2024/01/09 01:10:31;;;;;;;13.90;6.80;;;;;;;-9.77;100.00;102286.14;109549;1245;71861;-77
2024/01/09 01:13:00;;;;;;;13.00;6.10;;;;;;;-9.83;100.00;102288.63;109565;1245;61656;-77
2024/01/09 01:15:28;;;;;;;11.80;6.40;;;;;;;-9.80;100.00;102293.64;109478;1244;61862;-76
2024/01/09 01:17:57;;;;;;;13.70;6.80;;;;;;;-9.85;100.00;102303.08;109462;1247;72103;-77
2024/01/09 01:20:26;;;;;;;10.50;5.70;;;;;;;-9.83;100.00;102305.52;109550;1245;69518;-76
2024/01/09 01:22:55;;;;;;;12.80;6.30;;;;;;;-9.84;100.00;102307.14;109562;1243;67898;-77
2024/01/09 01:25:24;;;;;;;11.90;5.30;;;;;;;-9.84;100.00;102309.86;109531;1243;73930;-77
2024/01/09 01:27:52;;;;;;;15.50;7.10;;;;;;;-9.91;100.00;102313.65;109550;1245;63289;-77
2024/01/09 01:30:21;;;;;;;13.60;6.70;;;;;;;-9.91;100.00;102317.70;109531;1245;58185;-76
2024/01/09 01:32:50;;;;;;;12.40;6.10;;;;;;;-9.94;100.00;102325.52;109548;1244;71582;-75
2024/01/09 01:35:19;;;;;;;13.30;6.30;;;;;;;-10.13;100.00;102319.06;109556;1244;72038;-75
2024/01/09 01:37:47;;;;;;;13.00;6.50;;;;;;;-10.04;100.00;102325.12;109454;1243;70601;-74
2024/01/09 01:40:16;;;;;;;8.80;4.70;;;;;;;-10.12;100.00;102323.96;109387;1247;71501;-76
2024/01/09 01:42:45;;;;;;;12.40;6.40;;;;;;;-10.18;100.00;102329.33;109432;1245;61083;-76
2024/01/09 01:45:16;;;;;;;13.30;5.20;;;;;;;-10.18;100.00;102333.87;109536;1243;60305;-75
2024/01/09 01:47:46;;;;;;;10.80;5.60;;;;;;;-10.18;100.00;102334.88;109464;1244;71904;-75
2024/01/09 01:50:15;;;;;;;11.50;4.90;;;;;;;-10.41;100.00;102344.10;109429;1244;72700;-74
2024/01/09 01:52:46;;;;;;;11.70;5.10;;;;;;;-10.36;100.00;102347.33;109576;1243;69078;-76
2024/01/09 01:55:19;;;;;;;13.10;6.70;;;;;;;-10.38;100.00;102346.23;109366;1244;74324;-75
2024/01/09 01:57:50;;;;;;;13.30;6.10;;;;;;;-10.44;100.00;102348.21;109468;1244;62590;-75
2024/01/09 02:00:20;;;;;;;12.80;6.80;;;;;;;-10.54;100.00;102352.87;109288;1244;60697;-77
2024/01/09 02:02:50;;;;;;;13.40;6.40;;;;;;;-10.53;100.00;102353.10;109419;1242;73868;-75
2024/01/09 02:05:24;;;;;;;10.00;5.70;;;;;;;-10.57;100.00;102354.08;109325;1245;69886;-76
2024/01/09 02:07:54;;;;;;;11.90;5.80;;;;;;;-10.57;100.00;102357.95;109520;1242;70423;-77
2024/01/09 02:10:23;;;;;;;9.90;6.00;;;;;;;-10.64;100.00;102355.14;109504;1244;72241;-76
2024/01/09 02:12:52;;;;;;;9.20;5.20;;;;;;;-10.66;100.00;102364.83;109419;1245;61054;-75
2024/01/09 02:15:21;;;;;;;12.50;6.60;;;;;;;-10.68;100.00;102367.98;109580;1244;61079;-76
2024/01/09 02:17:49;;;;;;;10.60;5.90;;;;;;;-10.80;100.00;102372.02;109537;1245;73919;-76
2024/01/09 02:20:24;;;;;;;10.20;4.90;;;;;;;-10.79;100.00;102378.45;109430;1244;73069;-76
2024/01/09 02:22:53;;;;;;;14.80;6.80;;;;;;;-10.86;100.00;102375.65;109560;1244;69074;-75
2024/01/09 02:25:22;;;;;;;8.40;4.40;;;;;;;-10.89;100.00;102384.59;109397;1242;73550;-76
2024/01/09 02:28:18;;;;;;;10.80;5.70;;;;;;;-10.99;100.00;102386.89;109481;1244;62581;-79
2024/01/09 02:30:48;;;;;;;9.40;5.50;;;;;;;-11.08;100.00;102388.86;109412;1245;60159;-80
2024/01/09 02:33:16;;;;;;;11.30;6.10;;;;;;;-10.99;100.00;102390.39;109308;1243;73458;-77
2024/01/09 02:35:45;;;;;;;10.80;5.30;;;;;;;-10.98;100.00;102400.55;109506;1242;71762;-75
2024/01/09 02:38:15;;;;;;;11.70;6.70;;;;;;;-11.02;100.00;102404.61;109518;1242;70394;-74
2024/01/09 02:40:44;;;;;;;12.70;6.50;;;;;;;-11.07;100.00;102416.85;109369;1244;74384;-75
2024/01/09 02:43:13;;;;;;;10.40;5.50;;;;;;;-11.03;100.00;102421.54;109496;1244;62713;-75
2024/01/09 02:45:41;;;;;;;9.70;5.30;;;;;;;-11.02;100.00;102423.60;109481;1244;60159;-75
2024/01/09 02:48:10;;;;;;;10.20;5.20;;;;;;;-11.03;100.00;102430.15;109564;1243;70638;-75
2024/01/09 02:50:39;;;;;;;10.90;4.40;;;;;;;-11.15;100.00;102434.48;109598;1242;72143;-75
2024/01/09 02:53:08;;;;;;;11.00;5.20;;;;;;;-11.16;100.00;102433.44;109639;1242;69179;-75
2024/01/09 02:55:37;;;;;;;10.20;5.70;;;;;;;-11.16;100.00;102432.43;109628;1244;70079;-75
2024/01/09 02:58:06;;;;;;;11.80;6.30;;;;;;;-11.22;100.00;102443.58;109494;1245;61829;-75
2024/01/09 03:00:34;;;;;;;14.20;6.10;;;;;;;-11.23;100.00;102442.39;109529;1244;59052;-75
2024/01/09 03:03:03;;;;;;;12.50;6.00;;;;;;;-11.30;100.00;102455.54;109504;1245;71424;-76
2024/01/09 03:05:32;;;;;;;11.70;5.40;;;;;;;-11.24;100.00;102460.52;109523;1244;72103;-75
2024/01/09 03:08:03;;;;;;;11.90;6.70;;;;;;;-11.27;100.00;102460.36;109402;1244;70288;-75
2024/01/09 03:10:32;;;;;;;11.10;5.70;;;;;;;-11.37;100.00;102459.77;109494;1244;73610;-75
2024/01/09 03:13:01;;;;;;;11.10;6.40;;;;;;;-11.38;100.00;102459.88;109312;1245;62706;-75
2024/01/09 03:15:30;;;;;;;11.50;5.80;;;;;;;-11.54;100.00;102467.39;109460;1244;61313;-74
2024/01/09 03:18:03;;;;;;;15.10;7.10;;;;;;;-11.60;100.00;102476.05;109203;1245;72187;-75
2024/01/09 03:20:32;;;;;;;12.40;6.60;;;;;;;-11.50;100.00;102471.58;109461;1244;69317;-72
2024/01/09 03:23:01;;;;;;;13.70;5.00;;;;;;;-11.66;100.00;102476.23;109425;1242;68466;-78
2024/01/09 03:25:29;;;;;;;13.20;7.50;;;;;;;-11.77;100.00;102482.64;109443;1243;74107;-79
2024/01/09 03:27:58;;;;;;;13.30;6.40;;;;;;;-11.84;100.00;102485.16;109416;1242;60810;-77
2024/01/09 03:30:29;;;;;;;12.70;6.30;;;;;;;-11.75;100.00;102487.94;109354;1244;59589;-75
2024/01/09 03:32:58;;;;;;;11.20;5.40;;;;;;;-11.75;100.00;102493.65;109369;1243;70793;-77
2024/01/09 03:35:27;;;;;;;18.20;7.60;;;;;;;-11.78;100.00;102497.38;109287;1244;71260;-75
2024/01/09 03:37:56;;;;;;;11.80;6.80;;;;;;;-11.86;100.00;102506.42;109419;1243;68568;-76
2024/01/09 03:40:25;;;;;;;12.50;6.00;;;;;;;-11.89;100.00;102503.41;109362;1244;71825;-75
2024/01/09 03:42:54;;;;;;;15.10;6.90;;;;;;;-11.90;100.00;102512.13;109458;1244;62905;-75
2024/01/09 03:45:24;;;;;;;7.10;4.60;;;;;;;-11.94;100.00;102517.48;109487;1242;60716;-75
2024/01/09 03:47:53;;;;;;;14.30;6.70;;;;;;;-11.92;100.00;102516.23;109502;1243;74311;-74
2024/01/09 03:50:22;;;;;;;12.90;6.60;;;;;;;-12.06;100.00;102524.64;109513;1243;71708;-75
2024/01/09 03:52:51;;;;;;;10.60;5.80;;;;;;;-12.04;100.00;102527.91;109710;1242;68074;-76
2024/01/09 03:55:20;;;;;;;13.20;6.70;;;;;;;-12.16;100.00;102531.72;109559;1242;73680;-76
2024/01/09 03:57:48;;;;;;;14.50;7.30;;;;;;;-12.12;100.00;102535.77;109636;1244;63161;-75
2024/01/09 04:00:17;;;;;;;16.70;7.00;;;;;;;-12.22;100.00;102540.13;109679;1242;59116;-77
2024/01/09 04:02:46;;;;;;;15.20;7.30;;;;;;;-12.24;100.00;102551.46;109687;1243;71770;-77
2024/01/09 04:05:15;;;;;;;15.00;6.40;;;;;;;-12.23;100.00;102553.34;109671;1242;69372;-77
2024/01/09 04:07:44;;;;;;;12.30;5.80;;;;;;;-12.22;100.00;102561.98;109837;1243;68686;-75
2024/01/09 04:10:13;;;;;;;13.00;5.40;;;;;;;-12.26;100.00;102564.45;109920;1242;72857;-76
2024/01/09 04:12:41;;;;;;;13.90;6.90;;;;;;;-12.33;100.00;102567.29;109529;1245;63239;-79
2024/01/09 04:15:10;;;;;;;10.40;5.40;;;;;;;-12.40;100.00;102580.21;109575;1243;60186;-79
2024/01/09 04:17:39;;;;;;;13.10;7.20;;;;;;;-12.36;100.00;102579.55;109520;1242;70868;-79
2024/01/09 04:20:12;;;;;;;14.40;6.90;;;;;;;-12.40;100.00;102585.23;109669;1243;70288;-81
2024/01/09 04:22:40;;;;;;;11.40;5.20;;;;;;;-12.52;100.00;102588.99;109559;1243;69902;-81
2024/01/09 04:25:10;;;;;;;13.20;7.00;;;;;;;-12.54;100.00;102595.76;109539;1243;72598;-78
2024/01/09 04:27:39;;;;;;;12.60;7.10;;;;;;;-12.61;100.00;102596.08;109705;1243;60722;-80
2024/01/09 04:30:08;;;;;;;14.60;7.20;;;;;;;-12.65;100.00;102597.90;109691;1243;60211;-79
2024/01/09 04:32:37;;;;;;;11.60;6.90;;;;;;;-12.67;100.00;102597.63;109673;1242;70519;-78
2024/01/09 04:35:06;;;;;;;14.00;6.60;;;;;;;-12.63;100.00;102604.38;109509;1243;70258;-79
2024/01/09 04:37:35;;;;;;;17.40;6.80;;;;;;;-12.70;100.00;102603.84;109597;1243;68754;-79
2024/01/09 04:40:05;;;;;;;15.70;6.40;;;;;;;-12.70;100.00;102614.70;109585;1245;72272;-81
2024/01/09 04:42:34;;;;;;;15.00;7.60;;;;;;;-12.76;100.00;102624.47;109453;1244;60572;-80
2024/01/09 04:45:03;;;;;;;11.90;6.90;;;;;;;-12.81;100.00;102628.71;109595;1244;60965;-80
2024/01/09 04:47:32;;;;;;;15.40;6.50;;;;;;;-12.81;100.00;102636.30;109583;1243;72033;-80
2024/01/09 04:50:01;;;;;;;12.90;6.10;;;;;;;-12.78;100.00;102638.97;109619;1243;70242;-79
2024/01/09 04:52:30;;;;;;;12.30;6.70;;;;;;;-12.86;100.00;102638.22;109635;1244;69673;-80
2024/01/09 04:54:58;;;;;;;15.00;7.50;;;;;;;-12.95;100.00;102646.42;109539;1244;74047;-80
2024/01/09 04:57:27;;;;;;;15.40;7.00;;;;;;;-12.96;100.00;102656.15;109555;1242;60933;-79
2024/01/09 04:59:56;;;;;;;15.00;6.70;;;;;;;-13.10;100.00;102655.35;109636;1243;59407;-80
2024/01/09 05:02:25;;;;;;;14.40;7.20;;;;;;;-13.03;100.00;102667.99;109603;1244;73329;-78
2024/01/09 05:04:53;;;;;;;12.30;7.10;;;;;;;-13.05;100.00;102671.89;109621;1244;71852;-78
2024/01/09 05:07:22;;;;;;;15.00;7.10;;;;;;;-13.06;100.00;102681.61;109620;1242;68501;-79
2024/01/09 05:09:51;;;;;;;12.40;6.70;;;;;;;-13.11;100.00;102687.50;109529;1244;71868;-79
2024/01/09 05:12:20;;;;;;;14.10;7.20;;;;;;;-13.17;100.00;102693.58;109576;1245;61820;-80
2024/01/09 05:14:49;;;;;;;15.90;8.10;;;;;;;-13.13;100.00;102693.63;109750;1242;59205;-80
2024/01/09 05:17:18;;;;;;;12.90;6.90;;;;;;;-13.16;100.00;102694.96;109736;1242;72053;-80
2024/01/09 05:19:47;;;;;;;15.70;7.10;;;;;;;-13.15;100.00;102701.41;109635;1244;71993;-76
2024/01/09 05:22:17;;;;;;;23.10;8.00;;;;;;;-13.05;100.00;102708.95;109649;1243;69692;-79
2024/01/09 05:24:46;;;;;;;13.60;7.80;;;;;;;-13.03;100.00;102713.46;109526;1244;71087;-78
2024/01/09 05:27:20;;;;;;;17.50;7.60;;;;;;;-13.07;100.00;102720.27;109633;1245;59344;-76
2024/01/09 05:29:48;;;;;;;17.20;7.50;;;;;;;-13.14;100.00;102725.77;109512;1243;60356;-76
2024/01/09 05:32:18;;;;;;;17.50;7.80;;;;;;;-13.15;100.00;102733.94;109534;1245;71426;-82
2024/01/09 05:34:47;;;;;;;15.10;7.90;;;;;;;-13.18;100.00;102736.11;109718;1243;69681;-80
2024/01/09 05:37:16;;;;;;;14.90;7.50;;;;;;;-13.25;100.00;102740.92;109733;1243;69394;-80
2024/01/09 05:39:46;;;;;;;13.60;7.10;;;;;;;-13.44;100.00;102749.39;109562;1243;73302;-80
2024/01/09 05:42:15;;;;;;;14.80;7.60;;;;;;;-13.33;100.00;102750.04;109520;1245;62247;-81
2024/01/09 05:44:43;;;;;;;15.20;7.90;;;;;;;-13.36;100.00;102750.71;109733;1242;60740;-81
2024/01/09 05:47:12;;;;;;;15.90;7.90;;;;;;;-13.40;100.00;102756.34;109638;1242;74562;-81
2024/01/09 05:49:41;;;;;;;16.60;6.90;;;;;;;-13.44;100.00;102765.81;109708;1243;70169;-81
2024/01/09 05:52:10;;;;;;;12.90;7.90;;;;;;;-13.45;100.00;102763.23;109602;1242;68497;-82
2024/01/09 05:54:45;;;;;;;16.50;6.20;;;;;;;-13.48;100.00;102772.92;109633;1242;72444;-81
2024/01/09 05:57:14;;;;;;;15.50;8.00;;;;;;;-13.47;100.00;102781.91;109578;1244;61223;-81
2024/01/09 05:59:43;;;;;;;15.10;7.60;;;;;;;-13.52;100.00;102780.94;109644;1244;58632;-81
2024/01/09 06:02:12;;;;;;;18.40;9.30;;;;;;;-13.64;100.00;102785.07;109733;1242;71554;-80
2024/01/09 06:04:41;;;;;;;15.20;7.50;;;;;;;-13.66;100.00;102785.80;109668;1243;71314;-78
2024/01/09 06:07:09;;;;;;;16.40;8.30;;;;;;;-13.73;100.00;102797.77;109763;1242;71088;-80
2024/01/09 06:09:38;;;;;;;14.30;7.60;;;;;;;-13.69;100.00;102796.02;109665;1242;74304;-77
2024/01/09 06:12:07;;;;;;;16.30;6.80;;;;;;;-13.65;100.00;102799.14;109485;1245;60767;-76
2024/01/09 06:14:36;;;;;;;15.60;8.20;;;;;;;-13.60;100.00;102799.21;109475;1244;58734;-75
2024/01/09 06:17:05;;;;;;;14.20;7.30;;;;;;;-13.70;100.00;102802.02;109349;1244;72840;-73
2024/01/09 06:19:35;;;;;;;15.80;7.70;;;;;;;-13.73;100.00;102811.39;109430;1244;69090;-72
2024/01/09 06:22:04;;;;;;;14.60;7.40;;;;;;;-13.70;100.00;102810.40;109453;1242;70262;-80
2024/01/09 06:24:32;;;;;;;16.20;7.60;;;;;;;-13.68;100.00;102815.70;109352;1243;74508;-70
2024/01/09 06:27:01;;;;;;;16.90;8.90;;;;;;;-13.72;100.00;102827.36;109441;1245;63747;-71
2024/01/09 06:29:30;;;;;;;14.90;7.40;;;;;;;-13.86;100.00;102825.80;109415;1243;58709;-70
2024/01/09 06:31:59;;;;;;;13.80;7.60;;;;;;;-13.92;100.00;102826.48;109390;1244;71552;-70
2024/01/09 06:34:28;;;;;;;20.10;8.90;;;;;;;-13.89;100.00;102830.16;109439;1243;72194;-71
2024/01/09 06:36:57;;;;;;;16.90;8.60;;;;;;;-13.80;100.00;102840.73;109446;1242;71108;-74
2024/01/09 06:39:25;;;;;;;16.10;8.20;;;;;;;-13.76;100.00;102844.70;109487;1242;74144;-71
2024/01/09 06:41:54;;;;;;;15.40;7.50;;;;;;;-13.77;100.00;102852.65;109349;1245;61673;-69
2024/01/09 06:44:23;;;;;;;14.20;7.50;;;;;;;-13.71;100.00;102847.04;109498;1242;58797;-74
2024/01/09 06:46:52;;;;;;;17.00;8.30;;;;;;;-13.73;100.00;102846.39;109682;1243;73375;-78
2024/01/09 06:49:20;;;;;;;17.50;7.60;;;;;;;-13.67;100.00;102852.95;109717;1243;71865;-70
2024/01/09 06:51:49;;;;;;;13.30;6.60;;;;;;;-13.68;100.00;102866.80;109568;1243;68314;-72
2024/01/09 06:54:18;;;;;;;12.20;6.10;;;;;;;-13.63;100.00;102869.27;109432;1242;71772;-72
2024/01/09 06:56:47;;;;;;;15.00;7.90;;;;;;;-13.58;100.00;102872.06;109370;1244;63753;-74
2024/01/09 06:59:16;;;;;;;10.60;6.00;;;;;;;-13.54;100.00;102884.73;109380;1243;61573;-77
2024/01/09 07:01:46;;;;;;;15.90;8.70;;;;;;;-13.46;100.00;102889.42;109197;1243;73331;-74
2024/01/09 07:04:15;;;;;;;12.00;6.80;;;;;;;-13.42;100.00;102894.19;109409;1242;72563;-74
2024/01/09 07:06:44;;;;;;;10.70;5.90;;;;;;;-13.36;100.00;102894.52;109275;1242;69029;-73
2024/01/09 07:09:13;;;;;;;15.70;8.70;;;;;;;-13.35;100.00;102898.11;109535;1243;72250;-72
2024/01/09 07:11:42;;;;;;;16.30;8.90;;;;;;;-13.32;100.00;102903.48;109525;1244;61185;-73
2024/01/09 07:14:11;;;;;;;14.80;7.80;;;;;;;-13.26;100.00;102909.74;109583;1243;58822;-72
2024/01/09 07:16:41;;;;;;;19.70;8.50;;;;;;;-13.21;100.00;102914.41;109656;1242;73565;-72
2024/01/09 07:19:10;;;;;;;16.10;8.20;;;;;;;-13.16;100.00;102920.88;109514;1244;70986;-72
2024/01/09 07:21:39;;;;;;;18.20;8.80;;;;;;;-13.14;100.00;102919.77;109635;1244;68537;-71
2024/01/09 07:24:08;;;;;;;14.70;6.30;;;;;;;-13.07;100.00;102912.64;109620;1242;73838;-71
2024/01/09 07:26:41;;;;;;;17.50;8.90;;;;;;;-12.96;100.00;102921.04;109385;1243;61464;-72
2024/01/09 07:29:16;;;;;;;15.20;6.20;;;;;;;-12.91;100.00;102920.84;109598;1242;59292;-73
2024/01/09 07:31:47;;;;;;;15.80;8.00;;;;;;;-12.87;100.00;102928.81;109637;1242;72090;-72
2024/01/09 07:34:16;;;;;;;13.50;6.40;;;;;;;-12.86;100.00;102926.48;109630;1242;70200;-73
2024/01/09 07:36:45;;;;;;;17.30;8.60;;;;;;;-12.81;100.00;102930.11;109545;1242;67851;-72
2024/01/09 07:39:14;;;;;;;15.60;8.00;;;;;;;-12.77;100.00;102938.25;109635;1244;71078;-72
2024/01/09 07:41:43;;;;;;;17.20;8.10;;;;;;;-12.73;100.00;102945.02;109523;1243;60340;-73
2024/01/09 07:44:13;;;;;;;13.70;6.30;;;;;;;-12.68;100.00;102941.98;109507;1243;60199;-74
2024/01/09 07:46:42;;;;;;;17.00;7.70;;;;;;;-12.66;100.00;102952.51;109632;1242;73016;-72
2024/01/09 07:49:11;;;;;;;16.70;8.00;;;;;;;-12.59;100.00;102956.75;109612;1244;70690;-74
2024/01/09 07:51:40;;;;;;;12.20;6.80;;;;;;;-12.53;100.00;102958.77;109522;1244;71058;-73
2024/01/09 07:54:08;;;;;;;16.80;8.20;;;;;;;-12.47;100.00;102962.97;109616;1242;74189;-73
2024/01/09 07:56:37;;;;;;;17.70;9.10;;;;;;;-12.45;100.00;102966.13;109491;1244;63733;-73
2024/01/09 07:59:06;;;;;;;21.10;8.60;;;;;;;-12.44;100.00;102968.21;109655;1244;58603;-72
2024/01/09 08:01:35;;;;;;;18.80;8.80;;;;;;;-12.40;100.00;102975.16;109636;1244;70787;-72
2024/01/09 08:04:06;;;;;;;12.10;6.50;;;;;;;-12.53;100.00;102982.63;109464;1245;70181;-74
2024/01/09 08:06:35;;;;;;;12.00;6.70;;;;;;;-12.46;100.00;102984.90;109347;1242;342023;-73
2024/01/09 08:09:05;;;;;;;17.00;8.40;;;;;;;-12.43;100.00;102984.35;109592;1244;71858;-73
2024/01/09 08:11:33;;;;;;;11.60;6.80;;;;;;;-12.34;100.00;102987.06;109582;1243;61956;-72
2024/01/09 08:14:02;;;;;;;14.50;7.70;;;;;;;-12.38;100.00;102986.02;109618;1242;59885;-71
2024/01/09 08:16:31;;;;;;;14.40;8.40;;;;;;;-12.26;100.00;102985.35;109593;1244;70825;-72
2024/01/09 08:19:00;;;;;;;15.40;9.40;;;;;;;-12.16;100.00;102983.42;109494;1242;72108;-73
2024/01/09 08:21:29;;;;;;;18.20;9.70;;;;;;;-12.31;100.00;102974.63;109494;1244;69087;-72
2024/01/09 08:23:58;;;;;;;13.80;7.70;;;;;;;-12.15;100.00;102976.41;109473;1242;71041;-73
2024/01/09 08:26:27;;;;;;;23.60;9.80;;;;;;;-12.21;100.00;102976.88;109505;1244;61254;-73
2024/01/09 08:28:56;;;;;;;18.80;10.70;;;;;;;-12.11;100.00;102978.15;109350;1243;60180;-71
2024/01/09 08:31:25;;;;;;;15.40;8.00;;;;;;;-12.03;100.00;102984.13;109260;1246;71457;-72
2024/01/09 08:33:54;;;;;;;16.10;8.70;;;;;;;-12.08;100.00;102996.09;109554;1243;71487;-73
2024/01/09 08:36:23;;;;;;;19.20;9.80;;;;;;;-11.91;100.00;103001.90;109501;1245;70625;-72
2024/01/09 08:38:51;;;;;;;18.10;8.70;;;;;;;-11.87;100.00;103001.31;109622;1242;73529;-72
2024/01/09 08:41:20;;;;;;;17.80;8.90;;;;;;;-11.97;100.00;103010.34;109600;1244;62149;-71
2024/01/09 08:43:49;;;;;;;15.80;8.30;;;;;;;-11.80;100.00;103010.80;109638;1243;61405;-72
2024/01/09 08:46:18;;;;;;;14.60;6.80;;;;;;;-11.64;100.00;103009.79;109638;1243;71894;-73
2024/01/09 08:48:47;;;;;;;18.20;9.80;;;;;;;-11.59;100.00;103011.27;109539;1245;69587;-73
2024/01/09 08:51:16;;;;;;;18.10;9.60;;;;;;;-11.53;100.00;103013.58;109491;1245;68488;-72
2024/01/09 08:53:54;;;;;;;17.30;7.90;;;;;;;-11.57;100.00;103005.30;109519;1244;71887;-72
2024/01/09 08:56:23;;;;;;;17.90;9.20;;;;;;;-11.59;100.00;103004.00;109512;1245;60659;-73
2024/01/09 08:58:52;;;;;;;14.80;6.90;;;;;;;-11.48;100.00;103002.45;109659;1242;59410;-73
2024/01/09 09:01:21;;;;;;;18.30;9.00;;;;;;;-11.33;100.00;103002.25;109528;1243;73653;-74
2024/01/09 09:03:50;;;;;;;21.70;9.00;;;;;;;-11.29;100.00;103002.42;109260;1245;69943;-72
2024/01/09 09:06:19;;;;;;;15.20;7.50;;;;;;;-11.30;100.00;103005.73;109363;1242;70766;-72
2024/01/09 09:08:49;;;;;;;16.50;8.30;;;;;;;-11.15;100.00;102994.58;109220;1247;71539;-74
2024/01/09 09:11:18;;;;;;;16.90;8.50;;;;;;;-11.14;100.00;102995.19;109465;1242;60821;-74
2024/01/09 09:13:47;;;;;;;17.30;8.70;;;;;;;-11.15;100.00;102994.80;109357;1242;61533;-72
2024/01/09 09:16:16;;;;;;;19.90;9.30;;;;;;;-11.20;100.00;102992.01;109383;1243;73320;-73
2024/01/09 09:18:45;;;;;;;17.60;9.60;;;;;;;-11.24;100.00;102998.15;109330;1242;72498;-72
2024/01/09 09:21:16;;;;;;;14.70;8.40;;;;;;;-11.17;100.00;103000.39;109497;1243;70918;-73
2024/01/09 09:23:47;;;;;;;14.70;8.20;;;;;;;-11.09;100.00;103003.19;109391;1243;74193;-73
2024/01/09 09:26:16;;;;;;;16.60;7.70;;;;;;;-11.07;100.00;103020.78;109298;1246;62482;-73
2024/01/09 09:28:47;;;;;;;22.20;9.90;;;;;;;-11.10;100.00;103014.70;109291;1242;61552;-72
2024/01/09 09:31:34;;;;;;;24.40;11.00;;;;;;;-11.08;100.00;103018.91;109519;1243;74053;-73
2024/01/09 09:34:03;;;;;;;11.10;6.80;;;;;;;-11.06;100.00;103017.99;109482;1242;71904;-71
2024/01/09 09:36:35;;;;;;;19.60;10.90;;;;;;;-11.03;100.00;103014.62;109230;1247;69203;-73
2024/01/09 09:39:04;;;;;;;17.30;9.40;;;;;;;-10.97;100.00;103009.70;109473;1244;71015;-72
2024/01/09 09:41:36;;;;;;;19.00;8.70;;;;;;;-10.95;100.00;103016.20;109436;1242;61069;-72
2024/01/09 09:44:07;;;;;;;16.00;8.70;;;;;;;-10.90;100.00;103012.91;109339;1244;61643;-72
2024/01/09 09:46:38;;;;;;;14.40;7.50;;;;;;;-10.79;100.00;103005.40;109500;1242;73975;-72
2024/01/09 09:49:13;;;;;;;18.80;10.40;;;;;;;-10.79;100.00;103014.14;109356;1245;70312;-73
2024/01/09 09:51:44;;;;;;;20.50;10.40;;;;;;;-10.83;100.00;103012.79;109312;1242;70769;-73
2024/01/09 09:54:13;;;;;;;18.70;10.30;;;;;;;-10.56;100.00;103007.26;109358;1245;73570;-75
2024/01/09 09:56:44;;;;;;;19.00;9.90;;;;;;;-10.63;100.00;103005.38;109337;1245;61035;-73
2024/01/09 09:59:13;;;;;;;14.80;8.00;;;;;;;-10.55;100.00;102997.38;109424;1245;60064;-73
2024/01/09 10:01:44;;;;;;;22.60;8.80;;;;;;;-10.60;100.00;102998.63;109392;1244;73128;-76
2024/01/09 10:04:26;;;;;;;23.90;11.00;;;;;;;-10.48;100.00;102993.85;109308;1245;70945;-74
2024/01/09 10:06:57;;;;;;;24.40;11.80;;;;;;;-10.43;100.00;102998.30;109430;1245;67843;-74
2024/01/09 10:09:34;;;;;;;23.60;14.00;;;;;;;-10.28;100.00;103004.11;109396;1245;73641;-75
2024/01/09 10:12:04;;;;;;;23.40;13.40;;;;;;;-10.40;100.00;103000.33;109363;1245;62775;-79
2024/01/09 10:14:32;;;;;;;19.80;9.70;;;;;;;-10.25;100.00;102988.90;109347;1245;61647;-73
2024/01/09 10:17:05;;;;;;;21.10;10.40;;;;;;;-10.01;100.00;102987.55;109329;1245;72242;-82
2024/01/09 10:19:34;;;;;;;17.60;8.90;;;;;;;-10.08;100.00;102979.44;109265;1244;71790;-74
2024/01/09 10:22:03;;;;;;;20.10;9.90;;;;;;;-10.15;100.00;102982.14;109495;1243;70845;-81
2024/01/09 10:24:36;;;;;;;10.30;6.60;;;;;;;-10.17;100.00;102984.21;109381;1243;73252;-72
2024/01/09 10:27:08;;;;;;;16.70;9.00;;;;;;;-10.20;100.00;102974.67;109228;1245;62306;-73
2024/01/09 10:29:44;;;;;;;21.40;10.90;;;;;;;-10.15;100.00;102973.02;109366;1245;59340;-73
2024/01/09 10:32:19;;;;;;;20.20;9.90;;;;;;;-10.08;100.00;102969.16;109379;1245;73451;-71
2024/01/09 10:34:48;;;;;;;22.80;11.80;;;;;;;-10.04;100.00;102969.70;109461;1245;69716;-72
2024/01/09 10:37:18;;;;;;;20.10;11.10;;;;;;;-10.01;100.00;102973.55;109373;1244;67448;-75
2024/01/09 10:39:50;;;;;;;16.60;9.70;;;;;;;-9.80;100.00;102976.55;109302;1244;71852;-73
2024/01/09 10:42:18;;;;;;;20.10;9.50;;;;;;;-9.53;100.00;102974.10;109271;1244;62684;-72
2024/01/09 10:44:47;;;;;;;17.60;8.70;;;;;;;-9.31;100.00;102975.98;109473;1244;61253;-73
2024/01/09 10:47:17;;;;;;;18.90;9.40;;;;;;;-9.16;100.00;102976.79;109398;1244;71354;-71
2024/01/09 10:49:49;;;;;;;18.00;8.80;;;;;;;-9.06;100.00;102978.09;109496;1242;72371;-72
2024/01/09 10:52:19;;;;;;;23.10;12.30;;;;;;;-8.78;100.00;102968.85;109358;1243;69572;-73
2024/01/09 10:54:48;;;;;;;19.30;9.60;;;;;;;-8.96;100.00;102968.90;109497;1244;75466;-73
2024/01/09 10:57:18;;;;;;;15.10;8.70;;;;;;;-8.73;100.00;102963.31;109429;1243;62781;-74
2024/01/09 10:59:48;;;;;;;19.40;9.50;;;;;;;-8.63;100.00;102964.05;109455;1243;61704;-74
2024/01/09 11:02:22;;;;;;;16.90;9.60;;;;;;;-8.49;100.00;102967.17;109503;1243;74142;-74
2024/01/09 11:04:52;;;;;;;14.70;7.20;;;;;;;-8.48;100.00;102966.06;109230;1244;70606;-74